Time;durP1;ratioP1;P1;durP2;ratioP2;P2;SDS_P1;SDS_P2;PMS_P1;PMS_P2;Temp;Humidity;BMP_temperature;BMP_pressure;BME280_temperature;BME280_humidity;BME280_pressure;Samples;Min_cycle;Max_cycle;Signal;HPM_P1;HPM_P2
2022/11/17 00:00:15;;;;;;;;;;;21.20;60.50;;;;;;1561910;74;720;-57
2022/11/17 00:02:17;;;;;;;;;;;21.30;60.60;;;;;;1562881;74;1930;-55
2022/11/17 00:04:19;;;;;;;;;;;21.20;60.40;;;;;;1567548;75;720;-56
2022/11/17 00:06:21;;;;;;;;;;;21.20;60.30;;;;;;1565772;74;634;-59
2022/11/17 00:08:23;;;;;;;;;;;21.20;60.60;;;;;;1564891;75;1137;-58
2022/11/17 00:10:25;;;;;;;;;;;21.30;60.60;;;;;;1563124;74;659;-55
2022/11/17 00:14:46;;;;;;;;;;;21.20;60.40;;;;;;1564881;74;722;-57
2022/11/17 00:16:51;;;;;;;;;;;21.30;60.40;;;;;;1562618;74;649;-58
2022/11/17 00:21:19;;;;;;;;;;;21.30;60.30;;;;;;1561198;74;1915;-57
2022/11/17 00:23:21;;;;;;;;;;;21.30;60.60;;;;;;1559178;74;643;-57
2022/11/17 00:25:23;;;;;;;;;;;21.20;60.60;;;;;;1558103;74;684;-59
2022/11/17 00:27:25;;;;;;;;;;;21.30;60.50;;;;;;1568795;74;1560;-59
2022/11/17 00:29:29;;;;;;;;;;;21.30;60.60;;;;;;1572963;74;610;-57
2022/11/17 00:34:04;;;;;;;;;;;21.30;61.20;;;;;;1553880;74;1680;-58
2022/11/17 00:36:06;;;;;;;;;;;21.30;60.40;;;;;;1567319;75;622;-58
2022/11/17 00:38:16;;;;;;;;;;;21.30;60.40;;;;;;1567214;74;1134;-57
2022/11/17 00:40:18;;;;;;;;;;;21.30;60.40;;;;;;1573553;74;665;-58
2022/11/17 00:42:20;;;;;;;;;;;21.30;61.00;;;;;;1567350;74;2160;-58
2022/11/17 00:44:22;;;;;;;;;;;21.30;60.80;;;;;;1573075;74;640;-58
2022/11/17 00:46:24;;;;;;;;;;;21.40;60.50;;;;;;1569580;74;515;-57
2022/11/17 00:48:26;;;;;;;;;;;21.30;60.40;;;;;;1571115;74;1101;-56
2022/11/17 00:50:28;;;;;;;;;;;21.30;60.60;;;;;;1568547;75;673;-58
2022/11/17 00:52:29;;;;;;;;;;;21.40;60.40;;;;;;1575467;74;624;-58
2022/11/17 00:54:31;;;;;;;;;;;21.30;60.20;;;;;;1573258;74;1456;-58
2022/11/17 00:56:33;;;;;;;;;;;21.30;60.20;;;;;;1572856;74;732;-61
2022/11/17 00:58:35;;;;;;;;;;;21.40;60.40;;;;;;1575264;74;1137;-58
2022/11/17 01:00:37;;;;;;;;;;;21.40;60.20;;;;;;1578999;74;658;-59
2022/11/17 01:02:39;;;;;;;;;;;21.30;60.30;;;;;;1570698;74;1913;-58
2022/11/17 01:04:41;;;;;;;;;;;21.40;60.30;;;;;;1563119;74;632;-59
2022/11/17 01:06:44;;;;;;;;;;;21.40;60.20;;;;;;1570612;70;3026;-59
2022/11/17 01:08:46;;;;;;;;;;;21.30;60.20;;;;;;1555674;74;1545;-56
2022/11/17 01:10:48;;;;;;;;;;;21.40;60.90;;;;;;1569471;74;661;-55
2022/11/17 01:12:49;;;;;;;;;;;21.40;60.50;;;;;;1575249;74;637;-58
2022/11/17 01:14:51;;;;;;;;;;;21.40;60.70;;;;;;1568224;74;690;-60
2022/11/17 01:16:53;;;;;;;;;;;21.40;60.50;;;;;;1562165;74;680;-59
2022/11/17 01:18:55;;;;;;;;;;;21.40;60.30;;;;;;1560851;74;1164;-59
2022/11/17 01:20:59;;;;;;;;;;;21.40;61.00;;;;;;1573732;74;798;-60
2022/11/17 01:23:00;;;;;;;;;;;21.40;61.30;;;;;;1571118;74;1993;-59
2022/11/17 01:25:03;;;;;;;;;;;21.40;61.00;;;;;;1569368;74;677;-56
2022/11/17 01:27:05;;;;;;;;;;;21.40;61.30;;;;;;1570842;74;683;-56
2022/11/17 01:29:08;;;;;;;;;;;21.40;61.20;;;;;;1570031;74;1106;-55
2022/11/17 01:31:11;;;;;;;;;;;21.50;61.50;;;;;;1573306;74;757;-57
2022/11/17 01:33:12;;;;;;;;;;;21.40;61.50;;;;;;1578688;74;663;-57
2022/11/17 01:35:14;;;;;;;;;;;21.40;61.50;;;;;;1575221;74;938;-58
2022/11/17 01:37:19;;;;;;;;;;;21.40;61.30;;;;;;1573651;74;1553;-58
2022/11/17 01:39:21;;;;;;;;;;;21.40;61.20;;;;;;1569241;74;1074;-58
2022/11/17 01:41:23;;;;;;;;;;;21.50;61.00;;;;;;1567906;74;1914;-56
2022/11/17 01:43:39;;;;;;;;;;;21.40;61.00;;;;;;1570025;74;689;-59
2022/11/17 01:45:41;;;;;;;;;;;21.40;61.00;;;;;;1567039;74;706;-56
2022/11/17 01:47:56;;;;;;;;;;;21.40;61.20;;;;;;1565057;74;1144;-56
2022/11/17 01:50:09;;;;;;;;;;;21.40;61.20;;;;;;1571387;74;763;-59
2022/11/17 01:52:11;;;;;;;;;;;21.50;61.30;;;;;;1569944;74;1830;-54
2022/11/17 01:54:13;;;;;;;;;;;21.50;60.70;;;;;;1573393;74;678;-59
2022/11/17 01:56:16;;;;;;;;;;;21.50;61.30;;;;;;1570499;74;710;-60
2022/11/17 01:58:19;;;;;;;;;;;21.40;61.40;;;;;;1570073;74;1160;-58
2022/11/17 02:00:21;;;;;;;;;;;21.50;61.60;;;;;;1573265;74;685;-57
2022/11/17 02:02:23;;;;;;;;;;;21.50;61.80;;;;;;1563566;74;1946;-56
2022/11/17 02:04:29;;;;;;;;;;;21.40;61.40;;;;;;1564289;74;755;-58
2022/11/17 02:06:32;;;;;;;;;;;21.40;61.50;;;;;;1575593;74;1716;-58
2022/11/17 02:08:35;;;;;;;;;;;21.50;61.50;;;;;;1565102;74;1112;-55
2022/11/17 02:10:36;;;;;;;;;;;21.40;61.40;;;;;;1572213;74;689;-57
2022/11/17 02:12:38;;;;;;;;;;;21.40;61.30;;;;;;1575260;74;742;-55
2022/11/17 02:14:40;;;;;;;;;;;21.50;61.40;;;;;;1561711;74;708;-56
2022/11/17 02:16:42;;;;;;;;;;;21.40;61.30;;;;;;1572334;74;677;-60
2022/11/17 02:18:44;;;;;;;;;;;21.50;61.30;;;;;;1581208;74;1171;-59
2022/11/17 02:20:50;;;;;;;;;;;21.40;61.20;;;;;;1573508;74;1755;-57
2022/11/17 02:23:10;;;;;;;;;;;21.40;61.20;;;;;;1575335;74;1911;-58
2022/11/17 02:25:17;;;;;;;;;;;21.50;61.30;;;;;;1576478;74;677;-56
2022/11/17 02:27:20;;;;;;;;;;;21.50;61.30;;;;;;1574624;74;1891;-57
2022/11/17 02:29:30;;;;;;;;;;;21.40;61.10;;;;;;1573108;74;1862;-58
2022/11/17 02:31:45;;;;;;;;;;;21.50;61.20;;;;;;1571038;74;2051;-59
2022/11/17 02:34:06;;;;;;;;;;;21.40;61.10;;;;;;1573183;74;1555;-58
2022/11/17 02:36:10;;;;;;;;;;;21.40;61.10;;;;;;1569666;74;712;-55
2022/11/17 02:38:22;;;;;;;;;;;21.50;61.20;;;;;;1570141;74;1148;-58
2022/11/17 02:40:44;;;;;;;;;;;21.50;61.20;;;;;;1570728;74;660;-59
2022/11/17 02:45:08;;;;;;;;;;;21.50;61.30;;;;;;1573611;74;537;-56
2022/11/17 02:47:10;;;;;;;;;;;21.50;61.40;;;;;;1569999;74;1310;-57
2022/11/17 02:49:29;;;;;;;;;;;21.50;61.40;;;;;;1574452;74;1096;-59
2022/11/17 02:51:31;;;;;;;;;;;21.50;61.40;;;;;;1566021;74;1957;-59
2022/11/17 02:53:33;;;;;;;;;;;21.50;61.30;;;;;;1572038;74;663;-59
2022/11/17 02:55:35;;;;;;;;;;;21.50;61.40;;;;;;1572939;74;797;-58
2022/11/17 02:57:37;;;;;;;;;;;21.40;61.30;;;;;;1564890;74;1148;-58
2022/11/17 02:59:40;;;;;;;;;;;21.50;61.30;;;;;;1571252;74;752;-59
2022/11/17 03:01:50;;;;;;;;;;;21.50;61.30;;;;;;1565461;74;1935;-55
2022/11/17 03:04:08;;;;;;;;;;;21.50;61.30;;;;;;1573377;74;687;-56
2022/11/17 03:06:19;;;;;;;;;;;21.50;61.20;;;;;;1509517;77;1138;-60
2022/11/17 03:08:25;;;;;;;;;;;21.50;61.20;;;;;;1535579;74;1165;-55
2022/11/17 03:10:37;;;;;;;;;;;21.60;61.10;;;;;;1574615;74;685;-56
2022/11/17 03:12:50;;;;;;;;;;;21.50;61.10;;;;;;1568517;74;1843;-59
2022/11/17 03:14:53;;;;;;;;;;;21.50;61.10;;;;;;1563222;74;1928;-59
2022/11/17 03:17:03;;;;;;;;;;;21.50;61.10;;;;;;1523057;76;1820;-55
2022/11/17 03:19:06;;;;;;;;;;;21.50;61.00;;;;;;1538324;75;1189;-55
2022/11/17 03:21:09;;;;;;;;;;;21.50;61.00;;;;;;1528687;76;687;-56
2022/11/17 03:23:16;;;;;;;;;;;21.50;60.90;;;;;;1541621;76;1955;-60
2022/11/17 03:25:18;;;;;;;;;;;21.50;60.80;;;;;;1529879;76;1771;-58
2022/11/17 03:27:21;;;;;;;;;;;21.50;60.80;;;;;;1532865;76;779;-57
2022/11/17 03:29:23;;;;;;;;;;;21.50;60.80;;;;;;1534580;76;1329;-59
2022/11/17 03:31:25;;;;;;;;;;;21.60;60.90;;;;;;1519112;76;664;-59
2022/11/17 03:33:27;;;;;;;;;;;21.60;60.90;;;;;;1529224;75;723;-57
2022/11/17 03:35:29;;;;;;;;;;;21.50;60.90;;;;;;1534221;76;714;-56
2022/11/17 03:37:31;;;;;;;;;;;21.50;60.90;;;;;;1539409;76;1154;-60
2022/11/17 03:39:35;;;;;;;;;;;21.60;60.90;;;;;;1537407;76;727;-60
2022/11/17 03:41:37;;;;;;;;;;;21.60;60.90;;;;;;1536811;76;993;-58
2022/11/17 03:43:39;;;;;;;;;;;21.60;60.90;;;;;;1540969;76;1929;-55
2022/11/17 03:45:42;;;;;;;;;;;21.60;60.90;;;;;;1528178;76;703;-60
2022/11/17 03:47:44;;;;;;;;;;;21.60;60.80;;;;;;1531574;75;1121;-56
2022/11/17 03:49:53;;;;;;;;;;;21.60;60.90;;;;;;1520467;76;701;-59
2022/11/17 03:51:55;;;;;;;;;;;21.60;60.80;;;;;;1518888;76;1702;-57
2022/11/17 03:53:57;;;;;;;;;;;21.60;60.90;;;;;;1540320;76;858;-58
2022/11/17 03:56:03;;;;;;;;;;;21.60;60.80;;;;;;1541412;76;683;-58
2022/11/17 03:58:06;;;;;;;;;;;21.70;60.80;;;;;;1526743;76;1584;-56
2022/11/17 04:00:08;;;;;;;;;;;21.70;60.80;;;;;;1533846;76;700;-58
2022/11/17 04:02:14;;;;;;;;;;;21.70;60.80;;;;;;1537915;75;1939;-58
2022/11/17 04:04:17;;;;;;;;;;;21.70;60.70;;;;;;1503967;77;670;-58
2022/11/17 04:06:19;;;;;;;;;;;21.70;60.80;;;;;;1527837;76;763;-58
2022/11/17 04:08:22;;;;;;;;;;;21.70;60.60;;;;;;1526065;76;1150;-58
2022/11/17 04:10:25;;;;;;;;;;;21.80;60.60;;;;;;1522606;76;776;-57
2022/11/17 04:17:06;;;;;;;;;;;21.80;60.60;;;;;;1525751;75;1673;-54
2022/11/17 04:19:08;;;;;;;;;;;21.80;60.50;;;;;;1538685;76;1190;-58
2022/11/17 04:21:10;;;;;;;;;;;21.80;60.40;;;;;;1523197;76;693;-58
2022/11/17 04:23:13;;;;;;;;;;;21.80;60.40;;;;;;1531683;76;1947;-59
2022/11/17 04:28:35;;;;;;;;;;;21.80;60.30;;;;;;1532949;76;685;-60
2022/11/17 04:29:38;;;;;;;;;;;21.80;60.20;;;;;;1527312;76;1712;-58
2022/11/17 04:31:40;;;;;;;;;;;21.80;60.30;;;;;;1545964;75;671;-58
2022/11/17 04:33:42;;;;;;;;;;;21.80;60.30;;;;;;1540957;75;638;-56
2022/11/17 04:35:46;;;;;;;;;;;21.90;60.40;;;;;;1540478;76;651;-60
2022/11/17 04:37:48;;;;;;;;;;;21.90;60.40;;;;;;1528599;76;1885;-56
2022/11/17 04:39:50;;;;;;;;;;;21.80;60.40;;;;;;1536873;76;1559;-60
2022/11/17 04:42:02;;;;;;;;;;;21.90;60.50;;;;;;1535838;76;682;-58
2022/11/17 04:43:58;;;;;;;;;;;21.90;60.50;;;;;;1539862;76;1929;-57
2022/11/17 04:46:00;;;;;;;;;;;21.90;60.50;;;;;;1534957;76;690;-57
2022/11/17 04:48:02;;;;;;;;;;;21.90;60.50;;;;;;1526529;76;1115;-57
2022/11/17 04:50:04;;;;;;;;;;;21.90;60.40;;;;;;1526474;76;797;-59
2022/11/17 04:52:06;;;;;;;;;;;21.90;60.40;;;;;;1532034;76;692;-58
2022/11/17 04:54:08;;;;;;;;;;;21.90;60.50;;;;;;1529122;76;1596;-57
2022/11/17 04:56:10;;;;;;;;;;;21.90;60.50;;;;;;1538016;76;676;-60
2022/11/17 04:58:12;;;;;;;;;;;21.90;60.40;;;;;;1533377;76;1152;-58
2022/11/17 05:00:14;;;;;;;;;;;21.90;60.40;;;;;;1529602;76;709;-57
2022/11/17 05:02:16;;;;;;;;;;;21.90;60.40;;;;;;1540003;75;692;-57
2022/11/17 05:05:04;;;;;;;;;;;22.00;60.40;;;;;;1536778;76;755;-58
2022/11/17 05:06:23;;;;;;;;;;;21.90;60.40;;;;;;1511024;76;1086;-56
2022/11/17 05:08:25;;;;;;;;;;;22.00;60.40;;;;;;1524040;76;1582;-58
2022/11/17 05:15:07;;;;;;;;;;;22.00;60.20;;;;;;1536148;75;1632;-55
2022/11/17 05:17:09;;;;;;;;;;;22.00;60.20;;;;;;1535904;75;809;-59
2022/11/17 05:19:11;;;;;;;;;;;21.90;60.30;;;;;;1537234;76;1146;-60
2022/11/17 05:21:13;;;;;;;;;;;21.90;60.20;;;;;;1533612;76;637;-57
2022/11/17 05:25:35;;;;;;;;;;;21.90;60.20;;;;;;1528684;76;1637;-59
2022/11/17 05:27:37;;;;;;;;;;;21.90;60.10;;;;;;1537870;76;1184;-59
2022/11/17 05:29:39;;;;;;;;;;;21.90;60.20;;;;;;1528751;75;816;-58
2022/11/17 05:31:41;;;;;;;;;;;21.90;60.20;;;;;;1543457;75;652;-59
2022/11/17 05:33:43;;;;;;;;;;;21.90;60.20;;;;;;1538756;76;645;-59
2022/11/17 05:35:45;;;;;;;;;;;21.90;60.30;;;;;;1541256;76;1552;-57
2022/11/17 05:37:47;;;;;;;;;;;21.90;60.30;;;;;;1536158;76;1144;-57
2022/11/17 05:39:48;;;;;;;;;;;21.90;60.30;;;;;;1532455;76;709;-55
2022/11/17 05:41:50;;;;;;;;;;;21.90;60.40;;;;;;1532745;76;622;-60
2022/11/17 05:43:52;;;;;;;;;;;21.90;60.40;;;;;;1534870;77;1926;-59
2022/11/17 05:45:54;;;;;;;;;;;21.90;60.40;;;;;;1539897;75;738;-57
2022/11/17 05:47:56;;;;;;;;;;;21.90;60.70;;;;;;1535821;76;1132;-57
2022/11/17 05:49:58;;;;;;;;;;;21.90;60.90;;;;;;1538918;76;1570;-56
2022/11/17 05:52:00;;;;;;;;;;;21.90;60.80;;;;;;1530415;76;826;-56
2022/11/17 05:54:01;;;;;;;;;;;21.90;60.80;;;;;;1534273;76;709;-55
2022/11/17 05:56:08;;;;;;;;;;;21.90;60.90;;;;;;1527718;76;734;-58
2022/11/17 05:58:11;;;;;;;;;;;22.00;61.00;;;;;;1531891;76;1144;-59
2022/11/17 06:00:14;;;;;;;;;;;22.00;61.20;;;;;;1533954;75;724;-59
2022/11/17 06:02:17;;;;;;;;;;;22.00;60.90;;;;;;1531909;76;695;-59
2022/11/17 06:04:19;;;;;;;;;;;22.00;60.70;;;;;;1533315;76;1935;-59
2022/11/17 06:06:21;;;;;;;;;;;22.00;60.60;;;;;;1535608;76;786;-58
2022/11/17 06:08:23;;;;;;;;;;;22.00;60.40;;;;;;1536579;76;1146;-57
2022/11/17 06:10:25;;;;;;;;;;;21.90;60.30;;;;;;1536148;76;692;-60
2022/11/17 06:12:27;;;;;;;;;;;22.00;60.10;;;;;;1532686;76;735;-59
2022/11/17 06:14:28;;;;;;;;;;;22.00;60.00;;;;;;1528863;75;733;-60
2022/11/17 06:16:31;;;;;;;;;;;21.90;60.00;;;;;;1525709;76;929;-59
2022/11/17 06:18:40;;;;;;;;;;;21.90;60.00;;;;;;1535641;76;1677;-60
2022/11/17 06:20:43;;;;;;;;;;;22.00;60.10;;;;;;1540770;76;661;-59
2022/11/17 06:22:45;;;;;;;;;;;22.00;60.10;;;;;;1536518;76;1924;-59
2022/11/17 06:24:47;;;;;;;;;;;21.90;60.00;;;;;;1534261;76;788;-59
2022/11/17 06:26:49;;;;;;;;;;;22.00;60.00;;;;;;1536433;76;731;-56
2022/11/17 06:28:50;;;;;;;;;;;22.00;60.00;;;;;;1548548;74;1148;-58
2022/11/17 06:30:53;;;;;;;;;;;22.00;60.00;;;;;;1529241;76;538;-57
2022/11/17 06:32:55;;;;;;;;;;;22.00;59.90;;;;;;1540122;76;1581;-56
2022/11/17 06:34:57;;;;;;;;;;;22.00;59.90;;;;;;1540283;76;723;-58
2022/11/17 06:36:59;;;;;;;;;;;22.00;59.90;;;;;;1518483;76;645;-59
2022/11/17 06:39:01;;;;;;;;;;;22.00;60.00;;;;;;1541189;76;1130;-58
2022/11/17 06:41:03;;;;;;;;;;;22.00;60.00;;;;;;1538146;76;718;-60
2022/11/17 06:43:12;;;;;;;;;;;22.00;60.10;;;;;;1526395;75;1931;-59
2022/11/17 06:45:11;;;;;;;;;;;22.00;60.20;;;;;;1534438;77;1597;-59
2022/11/17 06:47:13;;;;;;;;;;;21.90;60.20;;;;;;1533526;76;1578;-60
2022/11/17 06:49:15;;;;;;;;;;;21.90;60.10;;;;;;1533467;76;1116;-60
2022/11/17 06:51:17;;;;;;;;;;;22.00;60.10;;;;;;1538471;76;561;-60
2022/11/17 06:53:18;;;;;;;;;;;22.00;59.70;;;;;;1526839;76;1010;-57
2022/11/17 06:55:20;;;;;;;;;;;21.90;59.40;;;;;;1532972;76;567;-57
2022/11/17 06:57:22;;;;;;;;;;;21.90;59.40;;;;;;1540310;75;658;-59
2022/11/17 06:59:24;;;;;;;;;;;22.00;59.40;;;;;;1530737;76;743;-59
2022/11/17 07:01:26;;;;;;;;;;;22.00;59.40;;;;;;1536550;76;1520;-61
2022/11/17 07:03:28;;;;;;;;;;;21.90;59.40;;;;;;1531502;76;1953;-58
2022/11/17 07:05:33;;;;;;;;;;;22.00;59.40;;;;;;1537235;76;685;-59
2022/11/17 07:07:35;;;;;;;;;;;21.90;59.30;;;;;;1537779;73;219383;-67
2022/11/17 07:09:37;;;;;;;;;;;21.90;59.40;;;;;;1513636;76;631;-67
2022/11/17 07:11:39;;;;;;;;;;;22.00;59.40;;;;;;1534972;77;616;-67
2022/11/17 07:13:41;;;;;;;;;;;21.90;59.30;;;;;;1532572;76;654;-67
2022/11/17 07:15:42;;;;;;;;;;;22.00;59.30;;;;;;1518861;76;1373;-67
2022/11/17 07:17:44;;;;;;;;;;;21.90;59.30;;;;;;1515528;77;1202;-68
2022/11/17 07:19:46;;;;;;;;;;;21.90;59.30;;;;;;1509224;79;631;-67
2022/11/17 07:21:48;;;;;;;;;;;21.90;59.30;;;;;;1503802;77;660;-67
2022/11/17 07:23:50;;;;;;;;;;;21.90;59.30;;;;;;1495254;77;1936;-67
2022/11/17 07:25:52;;;;;;;;;;;21.90;59.30;;;;;;1497570;77;586;-67
2022/11/17 07:27:58;;;;;;;;;;;21.90;59.20;;;;;;1494820;77;1184;-66
2022/11/17 07:30:00;;;;;;;;;;;21.90;59.20;;;;;;1503535;77;1614;-67
2022/11/17 07:32:02;;;;;;;;;;;21.90;59.20;;;;;;1496526;77;698;-67
2022/11/17 07:34:04;;;;;;;;;;;21.90;59.20;;;;;;1498818;79;640;-67
2022/11/17 07:36:08;;;;;;;;;;;21.90;59.20;;;;;;1504795;77;780;-67
2022/11/17 07:38:10;;;;;;;;;;;21.90;59.20;;;;;;1506030;77;1144;-68
2022/11/17 07:40:12;;;;;;;;;;;21.90;59.20;;;;;;1504398;77;713;-66
2022/11/17 07:42:14;;;;;;;;;;;21.90;59.20;;;;;;1503762;77;717;-67
2022/11/17 07:44:15;;;;;;;;;;;21.90;59.10;;;;;;1505769;77;1937;-67
2022/11/17 07:46:17;;;;;;;;;;;21.90;59.10;;;;;;1509770;77;703;-67
2022/11/17 07:48:19;;;;;;;;;;;21.90;59.10;;;;;;1508330;77;1045;-67
2022/11/17 07:50:22;;;;;;;;;;;21.80;59.00;;;;;;1509075;79;698;-67
2022/11/17 07:52:24;;;;;;;;;;;21.90;59.10;;;;;;1510324;77;650;-66
2022/11/17 07:54:26;;;;;;;;;;;21.90;59.10;;;;;;1510081;77;744;-67
2022/11/17 07:56:27;;;;;;;;;;;21.90;59.10;;;;;;1506912;77;1474;-65
2022/11/17 07:58:30;;;;;;;;;;;21.80;59.00;;;;;;1508653;77;672;-67
2022/11/17 08:00:32;;;;;;;;;;;21.90;59.10;;;;;;1503420;77;660;-67
2022/11/17 08:02:34;;;;;;;;;;;21.90;59.10;;;;;;1508610;77;652;-64
2022/11/17 08:04:36;;;;;;;;;;;21.90;59.10;;;;;;1507204;77;1919;-66
2022/11/17 08:06:38;;;;;;;;;;;21.90;59.10;;;;;;1508774;77;1145;-67
2022/11/17 08:08:40;;;;;;;;;;;21.90;59.00;;;;;;1511357;77;760;-66
2022/11/17 08:10:44;;;;;;;;;;;21.80;59.00;;;;;;1507025;77;1528;-66
2022/11/17 08:12:46;;;;;;;;;;;21.90;59.00;;;;;;1507403;77;746;-65
2022/11/17 08:14:48;;;;;;;;;;;21.90;59.00;;;;;;1508100;77;671;-66
2022/11/17 08:16:50;;;;;;;;;;;21.90;59.00;;;;;;1507296;77;1166;-67
2022/11/17 08:18:52;;;;;;;;;;;21.90;59.00;;;;;;1505637;77;761;-65
2022/11/17 08:21:01;;;;;;;;;;;21.80;58.90;;;;;;1499454;77;663;-66
2022/11/17 08:23:03;;;;;;;;;;;21.80;58.90;;;;;;1506766;77;696;-66
2022/11/17 08:25:05;;;;;;;;;;;21.90;59.00;;;;;;1505875;77;1963;-67
2022/11/17 08:27:07;;;;;;;;;;;21.90;59.00;;;;;;1499431;77;1183;-67
2022/11/17 08:29:09;;;;;;;;;;;21.80;58.90;;;;;;1507251;77;675;-66
2022/11/17 08:31:10;;;;;;;;;;;21.90;59.00;;;;;;1508821;79;676;-66
2022/11/17 08:33:12;;;;;;;;;;;21.90;59.00;;;;;;1506351;77;661;-65
2022/11/17 08:35:15;;;;;;;;;;;21.80;58.80;;;;;;1509293;77;698;-67
2022/11/17 08:37:17;;;;;;;;;;;21.80;58.80;;;;;;1508016;77;1146;-66
2022/11/17 08:39:18;;;;;;;;;;;21.80;58.80;;;;;;1508852;77;1569;-68
2022/11/17 08:41:20;;;;;;;;;;;21.90;58.90;;;;;;1507892;77;711;-69
2022/11/17 08:43:22;;;;;;;;;;;21.80;58.80;;;;;;1509229;77;736;-67
2022/11/17 08:45:24;;;;;;;;;;;21.80;58.80;;;;;;1505654;77;1935;-65
2022/11/17 08:47:26;;;;;;;;;;;21.90;58.90;;;;;;1500922;77;1141;-67
2022/11/17 08:49:28;;;;;;;;;;;21.90;58.90;;;;;;1497904;77;665;-66
2022/11/17 08:51:30;;;;;;;;;;;21.90;58.90;;;;;;1501755;77;787;-67
2022/11/17 08:53:32;;;;;;;;;;;21.90;58.80;;;;;;1508616;77;1516;-68
2022/11/17 08:55:35;;;;;;;;;;;21.90;58.80;;;;;;1495213;77;643;-70
2022/11/17 08:57:37;;;;;;;;;;;21.90;58.80;;;;;;1506480;77;1156;-68
2022/11/17 08:59:39;;;;;;;;;;;21.80;58.70;;;;;;1507800;77;739;-66
2022/11/17 09:01:41;;;;;;;;;;;21.90;58.80;;;;;;1507493;77;689;-66
2022/11/17 09:03:44;;;;;;;;;;;21.90;58.70;;;;;;1505982;77;643;-67
2022/11/17 09:05:48;;;;;;;;;;;21.80;58.60;;;;;;1507514;77;601;-66
2022/11/17 09:07:50;;;;;;;;;;;21.80;58.60;;;;;;1498296;77;1493;-66
2022/11/17 09:09:52;;;;;;;;;;;21.80;58.60;;;;;;1501086;77;541;-66
2022/11/17 09:11:54;;;;;;;;;;;21.80;58.60;;;;;;1504909;79;653;-67
2022/11/17 09:13:56;;;;;;;;;;;21.90;58.70;;;;;;1504960;78;683;-67
2022/11/17 09:16:02;;;;;;;;;;;21.80;58.60;;;;;;1508964;77;726;-66
2022/11/17 09:18:04;;;;;;;;;;;21.90;58.70;;;;;;1505930;77;1136;-66
2022/11/17 09:20:06;;;;;;;;;;;21.90;58.70;;;;;;1508792;77;646;-66
2022/11/17 09:22:08;;;;;;;;;;;21.90;58.70;;;;;;1507488;77;1465;-67
2022/11/17 09:24:10;;;;;;;;;;;21.90;58.70;;;;;;1509388;77;1937;-67
2022/11/17 09:26:12;;;;;;;;;;;21.90;58.70;;;;;;1509007;77;671;-67
2022/11/17 09:28:14;;;;;;;;;;;21.90;58.60;;;;;;1503939;77;1145;-68
2022/11/17 09:30:20;;;;;;;;;;;21.90;58.60;;;;;;1508072;77;767;-69
2022/11/17 09:32:20;;;;;;;;;;;21.90;58.30;;;;;;1509312;77;1409;-66
2022/11/17 09:34:22;;;;;;;;;;;21.90;58.30;;;;;;1501982;77;720;-65
2022/11/17 09:36:24;;;;;;;;;;;21.90;58.30;;;;;;1508160;77;1601;-64
2022/11/17 09:38:25;;;;;;;;;;;21.90;58.30;;;;;;1511155;77;1073;-69
2022/11/17 09:40:27;;;;;;;;;;;21.90;58.30;;;;;;1504107;77;703;-76
2022/11/17 09:42:29;;;;;;;;;;;21.90;58.30;;;;;;1508637;77;667;-70
2022/11/17 09:44:35;;;;;;;;;;;21.90;57.90;;;;;;1507437;77;1934;-69
2022/11/17 09:46:41;;;;;;;;;;;22.00;57.30;;;;;;1499746;77;1577;-67
2022/11/17 09:48:50;;;;;;;;;;;22.00;57.20;;;;;;1500038;79;1156;-68
2022/11/17 09:50:52;;;;;;;;;;;21.90;57.20;;;;;;1495927;77;1134;-69
2022/11/17 09:52:55;;;;;;;;;;;21.90;57.30;;;;;;1511572;77;736;-66
2022/11/17 09:54:58;;;;;;;;;;;21.90;57.30;;;;;;1504881;77;699;-67
2022/11/17 09:57:00;;;;;;;;;;;21.90;57.30;;;;;;1502819;77;1193;-70
2022/11/17 09:59:10;;;;;;;;;;;21.90;57.30;;;;;;1494767;77;687;-68
2022/11/17 10:01:07;;;;;;;;;;;21.90;57.30;;;;;;1492682;77;1539;-68
2022/11/17 10:03:14;;;;;;;;;;;21.90;57.30;;;;;;1508178;77;1459;-69
2022/11/17 10:05:17;;;;;;;;;;;21.90;57.30;;;;;;1500130;77;1934;-68
2022/11/17 10:07:19;;;;;;;;;;;21.90;57.40;;;;;;1515588;77;1131;-68
2022/11/17 10:09:23;;;;;;;;;;;21.90;57.40;;;;;;1492119;77;798;-68
2022/11/17 10:11:32;;;;;;;;;;;21.90;57.40;;;;;;1498642;77;1006;-67
2022/11/17 10:13:36;;;;;;;;;;;21.90;57.40;;;;;;1500086;79;697;-67
2022/11/17 10:15:39;;;;;;;;;;;21.90;57.50;;;;;;1507926;77;809;-70
2022/11/17 10:17:41;;;;;;;;;;;22.00;57.50;;;;;;1495261;77;1542;-66
2022/11/17 10:19:44;;;;;;;;;;;21.90;57.50;;;;;;1505655;77;691;-68
2022/11/17 10:21:47;;;;;;;;;;;21.90;57.50;;;;;;1506489;77;656;-69
2022/11/17 10:23:53;;;;;;;;;;;22.00;57.50;;;;;;1508806;77;744;-69
2022/11/17 10:25:58;;;;;;;;;;;22.00;57.50;;;;;;1504598;77;1936;-68
2022/11/17 10:28:00;;;;;;;;;;;21.90;57.50;;;;;;1493643;77;1200;-69
2022/11/17 10:30:09;;;;;;;;;;;21.90;57.60;;;;;;1501173;77;693;-70
2022/11/17 10:32:13;;;;;;;;;;;21.90;57.60;;;;;;1493589;77;1484;-69
2022/11/17 10:34:34;;;;;;;;;;;22.00;57.50;;;;;;1499577;77;654;-69
2022/11/17 10:36:36;;;;;;;;;;;21.90;57.60;;;;;;1502224;77;1139;-68
2022/11/17 10:38:38;;;;;;;;;;;21.90;57.50;;;;;;1503248;79;1032;-69
2022/11/17 10:40:41;;;;;;;;;;;22.00;57.50;;;;;;1475772;79;766;-68
2022/11/17 10:42:44;;;;;;;;;;;21.90;57.50;;;;;;1500466;77;678;-68
2022/11/17 10:44:50;;;;;;;;;;;21.90;57.60;;;;;;1500493;77;1939;-69
2022/11/17 10:47:00;;;;;;;;;;;21.90;57.50;;;;;;1505361;77;1456;-69
2022/11/17 10:49:03;;;;;;;;;;;21.90;57.50;;;;;;1501471;77;666;-69
2022/11/17 10:51:11;;;;;;;;;;;21.90;57.60;;;;;;1491261;77;652;-69
2022/11/17 10:53:17;;;;;;;;;;;22.00;57.50;;;;;;1503281;77;1365;-67
2022/11/17 10:55:19;;;;;;;;;;;21.90;57.60;;;;;;1501746;79;1567;-67
2022/11/17 10:57:21;;;;;;;;;;;21.90;57.60;;;;;;1505781;77;1154;-67
2022/11/17 10:59:25;;;;;;;;;;;22.00;57.60;;;;;;1508722;77;1452;-68
2022/11/17 11:01:28;;;;;;;;;;;21.90;57.60;;;;;;1496025;77;629;-67
2022/11/17 11:03:30;;;;;;;;;;;21.90;57.60;;;;;;1507961;77;742;-68
2022/11/17 11:05:32;;;;;;;;;;;21.90;57.60;;;;;;1505814;79;1931;-67
2022/11/17 11:07:34;;;;;;;;;;;21.90;57.60;;;;;;1506250;77;1102;-67
2022/11/17 11:09:37;;;;;;;;;;;21.90;57.60;;;;;;1506044;77;803;-66
2022/11/17 11:11:41;;;;;;;;;;;21.90;57.60;;;;;;1493733;79;1082;-66
2022/11/17 11:13:54;;;;;;;;;;;21.90;57.60;;;;;;1503213;77;1525;-66
2022/11/17 11:15:55;;;;;;;;;;;21.90;57.60;;;;;;1497179;77;803;-67
2022/11/17 11:17:57;;;;;;;;;;;21.90;57.60;;;;;;1503593;77;1126;-66
2022/11/17 11:20:00;;;;;;;;;;;21.90;57.60;;;;;;1506317;77;679;-66
2022/11/17 11:22:03;;;;;;;;;;;21.90;57.50;;;;;;1507542;77;696;-66
2022/11/17 11:24:11;;;;;;;;;;;21.90;57.50;;;;;;1506210;77;1172;-67
2022/11/17 11:26:20;;;;;;;;;;;21.90;57.50;;;;;;1504367;77;1907;-69
2022/11/17 11:28:24;;;;;;;;;;;21.90;57.50;;;;;;1503528;77;1397;-67
2022/11/17 11:30:25;;;;;;;;;;;21.90;57.50;;;;;;1497997;77;1576;-67
2022/11/17 11:32:35;;;;;;;;;;;21.90;57.50;;;;;;1496398;77;654;-67
2022/11/17 11:34:48;;;;;;;;;;;21.90;57.50;;;;;;1502437;77;721;-66
2022/11/17 11:36:51;;;;;;;;;;;22.00;57.40;;;;;;1507640;77;1783;-70
2022/11/17 11:38:57;;;;;;;;;;;21.90;57.50;;;;;;1506728;77;700;-67
2022/11/17 11:41:10;;;;;;;;;;;21.90;57.40;;;;;;1506602;77;713;-68
2022/11/17 11:43:16;;;;;;;;;;;21.90;57.40;;;;;;1497104;77;1609;-67
2022/11/17 11:45:38;;;;;;;;;;;21.90;57.40;;;;;;1495696;77;1937;-67
2022/11/17 11:47:44;;;;;;;;;;;21.90;57.40;;;;;;1505642;77;1601;-69
2022/11/17 11:49:56;;;;;;;;;;;21.90;57.30;;;;;;1506608;77;1095;-69
2022/11/17 11:51:58;;;;;;;;;;;21.90;57.30;;;;;;1504480;77;673;-68
2022/11/17 11:54:01;;;;;;;;;;;22.00;57.30;;;;;;1480104;79;1212;-68
2022/11/17 11:56:16;;;;;;;;;;;22.00;57.20;;;;;;1507378;77;1508;-67
2022/11/17 11:58:20;;;;;;;;;;;21.90;57.30;;;;;;1497209;77;1121;-68
2022/11/17 12:00:22;;;;;;;;;;;21.90;57.20;;;;;;1507756;77;706;-69
2022/11/17 12:02:37;;;;;;;;;;;21.90;57.20;;;;;;1506819;77;737;-67
2022/11/17 12:04:53;;;;;;;;;;;22.00;57.10;;;;;;1500787;77;707;-68
2022/11/17 12:07:14;;;;;;;;;;;21.90;57.10;;;;;;1467741;79;1158;-68
2022/11/17 12:09:24;;;;;;;;;;;22.00;57.10;;;;;;1506711;77;836;-69
2022/11/17 12:13:46;;;;;;;;;;;21.90;57.10;;;;;;1498283;77;1633;-67
2022/11/17 12:15:48;;;;;;;;;;;21.90;57.10;;;;;;1509852;77;663;-68
2022/11/17 12:18:03;;;;;;;;;;;21.90;57.10;;;;;;1509910;77;1156;-69
2022/11/17 12:20:07;;;;;;;;;;;21.90;57.10;;;;;;1496328;79;690;-68
2022/11/17 12:22:11;;;;;;;;;;;21.90;57.10;;;;;;1502401;77;1302;-66
2022/11/17 12:24:15;;;;;;;;;;;21.90;57.10;;;;;;1500950;79;1512;-67
2022/11/17 12:26:21;;;;;;;;;;;21.90;57.10;;;;;;1504728;77;1939;-68
2022/11/17 12:28:24;;;;;;;;;;;21.90;57.00;;;;;;1501538;79;1197;-69
2022/11/17 12:30:28;;;;;;;;;;;22.00;57.00;;;;;;1511525;77;1674;-68
2022/11/17 12:32:47;;;;;;;;;;;21.90;57.00;;;;;;1505735;77;1296;-68
2022/11/17 12:34:50;;;;;;;;;;;21.90;56.90;;;;;;1502514;77;2172;-65
2022/11/17 12:37:10;;;;;;;;;;;21.90;56.90;;;;;;1500900;77;1429;-67
2022/11/17 12:39:14;;;;;;;;;;;21.90;56.90;;;;;;1492167;77;1530;-67
2022/11/17 12:41:17;;;;;;;;;;;21.90;56.90;;;;;;1499752;77;964;-66